createdAt,value
2023-02-28T00:02:00.959Z,100.00
2023-02-28T00:05:07.791Z,100.00
2023-02-28T00:08:11.736Z,100.00
2023-02-28T00:11:17.998Z,100.00
2023-02-28T00:14:21.692Z,100.00
2023-02-28T00:17:25.262Z,100.00
2023-02-28T00:20:30.653Z,100.00
2023-02-28T00:23:34.570Z,100.00
2023-02-28T00:26:38.266Z,100.00
2023-02-28T00:29:42.544Z,100.00
2023-02-28T00:32:46.765Z,100.00
2023-02-28T00:35:52.572Z,100.00
2023-02-28T00:38:56.464Z,100.00
2023-02-28T00:42:00.113Z,100.00
2023-02-28T00:45:05.738Z,100.00
2023-02-28T00:48:09.362Z,100.00
2023-02-28T00:51:14.444Z,100.00
2023-02-28T00:54:18.592Z,100.00
2023-02-28T00:57:22.321Z,100.00
2023-02-28T01:00:26.166Z,100.00
2023-02-28T01:03:30.092Z,100.00
2023-02-28T01:06:35.170Z,100.00
2023-02-28T01:09:38.968Z,100.00
2023-02-28T01:12:42.580Z,100.00
2023-02-28T01:15:53.213Z,100.00
2023-02-28T01:18:56.901Z,100.00
2023-02-28T01:22:04.315Z,100.00
2023-02-28T01:25:09.095Z,100.00
2023-02-28T01:28:12.784Z,100.00
2023-02-28T01:31:20.196Z,100.00
2023-02-28T01:34:23.838Z,100.00
2023-02-28T01:37:29.224Z,100.00
2023-02-28T01:40:33.090Z,100.00
2023-02-28T01:44:07.041Z,100.00
2023-02-28T01:47:10.697Z,100.00
2023-02-28T01:50:20.308Z,100.00
2023-02-28T01:53:34.724Z,100.00
2023-02-28T01:56:39.533Z,100.00
2023-02-28T01:59:53.431Z,100.00
2023-02-28T02:03:02.753Z,100.00
2023-02-28T02:06:07.105Z,100.00
2023-02-28T02:09:12.612Z,100.00
2023-02-28T02:12:37.054Z,100.00
2023-02-28T02:15:49.699Z,100.00
2023-02-28T02:19:00.210Z,100.00
2023-02-28T02:22:34.108Z,100.00
2023-02-28T02:25:47.344Z,100.00
2023-02-28T02:29:40.219Z,100.00
2023-02-28T02:33:05.724Z,100.00
2023-02-28T02:36:19.936Z,100.00
2023-02-28T02:39:36.006Z,100.00
2023-02-28T02:42:51.871Z,100.00
2023-02-28T02:46:01.781Z,100.00
2023-02-28T02:49:11.663Z,100.00
2023-02-28T02:52:23.296Z,100.00
2023-02-28T02:55:30.895Z,100.00
2023-02-28T02:58:44.342Z,100.00
2023-02-28T03:01:48.181Z,100.00
2023-02-28T03:05:01.705Z,100.00
2023-02-28T03:08:08.332Z,100.00
2023-02-28T03:11:17.934Z,100.00
2023-02-28T03:14:58.242Z,100.00
2023-02-28T03:18:10.843Z,100.00
2023-02-28T03:21:25.833Z,100.00
2023-02-28T03:24:42.874Z,100.00
2023-02-28T03:28:02.764Z,100.00
2023-02-28T03:31:19.380Z,100.00
2023-02-28T03:34:31.618Z,100.00
2023-02-28T03:37:40.444Z,100.00
2023-02-28T03:40:52.351Z,100.00
2023-02-28T03:44:01.275Z,100.00
2023-02-28T03:47:11.429Z,100.00
2023-02-28T03:50:22.630Z,100.00
2023-02-28T03:53:33.573Z,100.00
2023-02-28T03:56:45.148Z,100.00
2023-02-28T03:59:56.972Z,100.00
2023-02-28T04:03:01.214Z,100.00
2023-02-28T04:06:06.315Z,100.00
2023-02-28T04:09:14.166Z,100.00
2023-02-28T04:12:19.157Z,100.00
2023-02-28T04:15:23.934Z,100.00
2023-02-28T04:18:27.713Z,100.00
2023-02-28T04:21:31.943Z,100.00
2023-02-28T04:24:35.759Z,100.00
2023-02-28T04:27:40.802Z,100.00
2023-02-28T04:30:44.381Z,100.00
2023-02-28T04:33:48.033Z,100.00
2023-02-28T04:37:02.717Z,100.00
2023-02-28T04:40:15.676Z,100.00
2023-02-28T04:43:20.718Z,100.00
2023-02-28T04:46:25.487Z,100.00
2023-02-28T04:49:29.258Z,100.00
2023-02-28T04:52:32.855Z,100.00
2023-02-28T04:55:36.505Z,100.00
2023-02-28T04:58:41.893Z,100.00
2023-02-28T05:01:49.776Z,100.00
2023-02-28T05:04:53.481Z,100.00
2023-02-28T05:07:57.449Z,100.00
2023-02-28T05:11:01.822Z,100.00
2023-02-28T05:14:11.573Z,100.00
2023-02-28T05:17:15.185Z,100.00
2023-02-28T05:20:19.505Z,100.00
2023-02-28T05:23:25.700Z,100.00
2023-02-28T05:26:30.093Z,100.00
2023-02-28T05:29:35.230Z,100.00
2023-02-28T05:32:39.066Z,100.00
2023-02-28T05:35:44.211Z,100.00
2023-02-28T05:38:50.137Z,100.00
2023-02-28T05:41:53.844Z,100.00
2023-02-28T05:44:58.790Z,100.00
2023-02-28T05:48:02.487Z,100.00
2023-02-28T05:51:07.656Z,100.00
2023-02-28T05:54:13.806Z,100.00
2023-02-28T05:57:24.441Z,100.00
2023-02-28T06:00:30.270Z,100.00
2023-02-28T06:03:33.875Z,100.00
2023-02-28T06:06:38.415Z,100.00
2023-02-28T06:09:42.661Z,100.00
2023-02-28T06:12:46.282Z,100.00
2023-02-28T06:15:51.279Z,100.00
2023-02-28T06:18:56.773Z,100.00
2023-02-28T06:22:00.808Z,100.00
2023-02-28T06:25:04.577Z,100.00
2023-02-28T06:28:08.317Z,100.00
2023-02-28T06:31:16.981Z,100.00
2023-02-28T06:34:20.648Z,100.00
2023-02-28T06:37:27.130Z,100.00
2023-02-28T06:40:32.924Z,100.00
2023-02-28T06:43:39.994Z,100.00
2023-02-28T06:46:46.745Z,100.00
2023-02-28T06:49:50.837Z,100.00
2023-02-28T06:52:56.679Z,100.00
2023-02-28T06:56:00.304Z,100.00
2023-02-28T06:59:04.580Z,100.00
2023-02-28T07:02:11.092Z,100.00
2023-02-28T07:05:14.753Z,100.00
2023-02-28T07:08:18.511Z,100.00
2023-02-28T07:11:26.426Z,100.00
2023-02-28T07:14:30.236Z,100.00
2023-02-28T07:17:35.130Z,100.00
2023-02-28T07:20:38.865Z,100.00
2023-02-28T07:23:43.231Z,100.00
2023-02-28T07:26:46.910Z,100.00
2023-02-28T07:29:50.468Z,100.00
2023-02-28T07:32:57.146Z,100.00
2023-02-28T07:36:04.395Z,100.00
2023-02-28T07:39:10.615Z,100.00
2023-02-28T07:42:14.436Z,100.00
2023-02-28T07:45:24.410Z,100.00
2023-02-28T07:48:29.433Z,100.00
2023-02-28T07:51:34.010Z,100.00
2023-02-28T07:54:37.653Z,100.00
2023-02-28T07:57:42.352Z,100.00
2023-02-28T08:00:46.016Z,100.00
2023-02-28T08:03:51.557Z,100.00
2023-02-28T08:06:55.146Z,100.00
2023-02-28T08:09:58.817Z,100.00
2023-02-28T08:13:02.548Z,100.00
2023-02-28T08:16:06.854Z,100.00
2023-02-28T08:19:11.821Z,100.00
2023-02-28T08:22:15.972Z,100.00
2023-02-28T08:25:19.921Z,100.00
2023-02-28T08:28:25.546Z,100.00
2023-02-28T08:31:30.963Z,100.00
2023-02-28T08:34:36.183Z,100.00
2023-02-28T08:37:39.868Z,100.00
2023-02-28T08:40:43.845Z,100.00
2023-02-28T08:43:47.431Z,100.00
2023-02-28T08:46:51.163Z,100.00
2023-02-28T08:49:56.164Z,100.00
2023-02-28T08:53:00.892Z,100.00
2023-02-28T08:56:08.466Z,100.00
2023-02-28T08:59:12.264Z,100.00
2023-02-28T09:02:16.675Z,100.00
2023-02-28T09:05:21.654Z,100.00
2023-02-28T09:08:26.859Z,100.00
2023-02-28T09:11:30.836Z,100.00
2023-02-28T09:14:34.477Z,100.00
2023-02-28T09:17:38.176Z,100.00
2023-02-28T09:20:44.736Z,100.00
2023-02-28T09:23:51.872Z,100.00
2023-02-28T09:27:05.085Z,100.00
2023-02-28T09:30:11.179Z,100.00
2023-02-28T09:33:15.277Z,100.00
2023-02-28T09:36:23.239Z,100.00
2023-02-28T09:39:29.838Z,100.00
2023-02-28T09:42:36.445Z,100.00
2023-02-28T09:45:44.987Z,100.00
2023-02-28T09:48:51.562Z,100.00
2023-02-28T09:52:01.890Z,100.00
2023-02-28T09:55:24.546Z,100.00
2023-02-28T09:58:36.884Z,100.00
2023-02-28T10:01:56.997Z,100.00
2023-02-28T10:05:07.210Z,100.00
2023-02-28T10:08:18.091Z,100.00
2023-02-28T10:11:23.974Z,100.00
2023-02-28T10:14:31.746Z,100.00
2023-02-28T10:17:55.351Z,100.00
2023-02-28T10:21:06.384Z,100.00
2023-02-28T10:24:25.720Z,100.00
2023-02-28T10:27:33.596Z,100.00
2023-02-28T10:30:41.470Z,100.00
2023-02-28T10:33:45.760Z,100.00
2023-02-28T10:36:51.568Z,100.00
2023-02-28T10:39:57.407Z,100.00
2023-02-28T10:43:03.866Z,100.00
2023-02-28T10:46:26.896Z,100.00
2023-02-28T10:49:31.838Z,100.00
2023-02-28T10:52:40.307Z,100.00
2023-02-28T10:55:45.696Z,100.00
2023-02-28T10:58:57.000Z,100.00
2023-02-28T11:02:00.623Z,100.00
2023-02-28T11:05:04.515Z,100.00
2023-02-28T11:08:16.175Z,100.00
2023-02-28T11:11:24.714Z,100.00
2023-02-28T11:14:32.591Z,100.00
2023-02-28T11:17:37.366Z,100.00
2023-02-28T11:20:42.568Z,100.00
2023-02-28T11:23:46.408Z,100.00
2023-02-28T11:26:52.050Z,100.00
2023-02-28T11:29:56.104Z,100.00
2023-02-28T11:32:59.943Z,100.00
2023-02-28T11:36:12.180Z,100.00
2023-02-28T11:39:18.367Z,100.00
2023-02-28T11:42:56.707Z,100.00
2023-02-28T11:46:23.100Z,100.00
2023-02-28T11:49:40.492Z,100.00
2023-02-28T11:52:54.493Z,100.00
2023-02-28T11:56:12.314Z,100.00
2023-02-28T11:59:48.494Z,100.00
2023-02-28T12:03:14.656Z,100.00
2023-02-28T12:06:31.613Z,100.00
2023-02-28T12:09:59.974Z,99.29
2023-02-28T12:13:24.129Z,100.00
2023-02-28T12:16:59.591Z,100.00
2023-02-28T12:20:17.628Z,100.00
2023-02-28T12:23:50.629Z,100.00
2023-02-28T12:27:00.156Z,100.00
2023-02-28T12:30:08.647Z,100.00
2023-02-28T12:33:19.102Z,100.00
2023-02-28T12:36:25.044Z,97.17
2023-02-28T12:39:41.677Z,91.71
2023-02-28T12:42:58.890Z,83.35
2023-02-28T12:46:12.411Z,82.70
2023-02-28T12:49:24.055Z,82.57
2023-02-28T12:52:43.284Z,86.17
2023-02-28T12:55:59.861Z,73.25
2023-02-28T12:59:13.639Z,70.71
2023-02-28T13:03:08.676Z,70.31
2023-02-28T13:06:43.662Z,75.19
2023-02-28T13:09:56.055Z,77.91
2023-02-28T13:12:59.839Z,78.94
2023-02-28T13:16:08.142Z,77.79
2023-02-28T13:19:14.544Z,77.92
2023-02-28T13:22:41.307Z,76.31
2023-02-28T13:25:56.133Z,79.49
2023-02-28T13:29:21.743Z,74.32
2023-02-28T13:32:42.502Z,76.71
2023-02-28T13:35:48.345Z,75.51
2023-02-28T13:38:54.408Z,76.30
2023-02-28T13:41:58.178Z,76.81
2023-02-28T13:45:31.077Z,74.16
2023-02-28T13:48:36.924Z,80.13
2023-02-28T13:51:47.883Z,75.88
2023-02-28T13:55:30.010Z,77.78
2023-02-28T13:58:55.451Z,75.74
2023-02-28T14:02:36.725Z,77.12
2023-02-28T14:05:42.248Z,78.27
2023-02-28T14:08:58.293Z,74.87
2023-02-28T14:12:55.733Z,75.02
2023-02-28T14:16:02.231Z,72.60
2023-02-28T14:19:16.309Z,74.65
2023-02-28T14:22:51.315Z,75.52
2023-02-28T14:26:07.948Z,76.48
2023-02-28T14:29:36.630Z,73.87
2023-02-28T14:32:53.428Z,73.68
2023-02-28T14:36:09.501Z,77.12
2023-02-28T14:39:21.165Z,75.52
2023-02-28T14:42:33.169Z,77.93
2023-02-28T14:45:39.504Z,76.13
2023-02-28T14:48:43.200Z,68.95
2023-02-28T14:51:48.379Z,69.80
2023-02-28T14:54:58.958Z,70.98
2023-02-28T14:58:07.523Z,74.01
2023-02-28T15:01:13.746Z,71.26
2023-02-28T15:04:29.865Z,72.50
2023-02-28T15:07:33.818Z,73.21
2023-02-28T15:10:41.529Z,70.93
2023-02-28T15:13:49.724Z,69.40
2023-02-28T15:17:01.673Z,71.03
2023-02-28T15:20:06.749Z,70.22
2023-02-28T15:23:12.135Z,70.20
2023-02-28T15:26:22.688Z,70.18
2023-02-28T15:29:31.894Z,68.03
2023-02-28T15:32:39.890Z,71.25
2023-02-28T15:35:43.909Z,71.96
2023-02-28T15:38:55.037Z,74.38
2023-02-28T15:42:24.773Z,76.72
2023-02-28T15:45:38.590Z,76.91
2023-02-28T15:48:53.600Z,79.51
2023-02-28T15:52:01.846Z,77.74
2023-02-28T15:55:14.794Z,83.34
2023-02-28T15:58:22.866Z,79.77
2023-02-28T16:01:31.473Z,79.43
2023-02-28T16:04:35.985Z,80.53
2023-02-28T16:07:42.558Z,79.90
2023-02-28T16:10:47.089Z,77.27
2023-02-28T16:13:55.030Z,78.33
2023-02-28T16:17:13.958Z,79.75
2023-02-28T16:20:21.690Z,82.06
2023-02-28T16:23:25.650Z,84.88
2023-02-28T16:26:29.851Z,85.45
2023-02-28T16:29:38.694Z,86.21
2023-02-28T16:32:43.038Z,89.24
2023-02-28T16:35:46.809Z,91.15
2023-02-28T16:38:51.486Z,90.14
2023-02-28T16:41:55.499Z,90.83
2023-02-28T16:45:00.645Z,94.01
2023-02-28T16:48:04.405Z,95.48
2023-02-28T16:51:08.453Z,97.04
2023-02-28T16:54:12.234Z,98.09
2023-02-28T16:57:24.219Z,99.81
2023-02-28T17:00:31.809Z,100.00
2023-02-28T17:03:37.404Z,100.00
2023-02-28T17:06:42.566Z,100.00
2023-02-28T17:09:47.012Z,100.00
2023-02-28T17:12:51.160Z,100.00
2023-02-28T17:15:57.118Z,100.00
2023-02-28T17:19:03.799Z,100.00
2023-02-28T17:22:07.535Z,100.00
2023-02-28T17:25:13.156Z,100.00
2023-02-28T17:28:16.853Z,100.00
2023-02-28T17:31:22.138Z,100.00
2023-02-28T17:34:25.984Z,100.00
2023-02-28T17:37:30.013Z,100.00
2023-02-28T17:40:34.994Z,100.00
2023-02-28T17:43:39.396Z,100.00
2023-02-28T17:46:46.044Z,100.00
2023-02-28T17:49:50.087Z,100.00
2023-02-28T17:52:53.821Z,100.00
2023-02-28T17:55:57.472Z,100.00
2023-02-28T17:59:01.257Z,100.00
2023-02-28T18:02:06.281Z,100.00
2023-02-28T18:05:11.409Z,100.00
2023-02-28T18:08:18.040Z,100.00
2023-02-28T18:11:23.215Z,100.00
2023-02-28T18:14:27.991Z,100.00
2023-02-28T18:17:33.256Z,100.00
2023-02-28T18:20:36.995Z,100.00
2023-02-28T18:23:47.789Z,100.00
2023-02-28T18:26:52.599Z,100.00
2023-02-28T18:29:56.467Z,100.00
2023-02-28T18:33:03.260Z,100.00
2023-02-28T18:36:08.254Z,100.00
2023-02-28T18:39:12.412Z,100.00
2023-02-28T18:42:16.175Z,100.00
2023-02-28T18:45:40.972Z,100.00
2023-02-28T18:48:47.226Z,100.00
2023-02-28T18:51:51.143Z,100.00
2023-02-28T18:54:54.922Z,100.00
2023-02-28T18:57:58.700Z,100.00
2023-02-28T19:01:03.732Z,100.00
2023-02-28T19:04:09.578Z,100.00
2023-02-28T19:07:13.545Z,100.00
2023-02-28T19:10:17.954Z,100.00
2023-02-28T19:13:22.675Z,100.00
2023-02-28T19:16:28.122Z,100.00
2023-02-28T19:19:33.462Z,100.00
2023-02-28T19:22:38.159Z,100.00
2023-02-28T19:25:43.463Z,100.00
2023-02-28T19:28:47.651Z,100.00
2023-02-28T19:31:53.334Z,100.00
2023-02-28T19:34:59.041Z,100.00
2023-02-28T19:38:02.808Z,100.00
2023-02-28T19:41:09.293Z,100.00
2023-02-28T19:44:14.576Z,100.00
2023-02-28T19:47:19.702Z,100.00
2023-02-28T19:50:26.616Z,100.00
2023-02-28T19:53:33.242Z,100.00
2023-02-28T19:56:37.108Z,100.00
2023-02-28T19:59:41.446Z,100.00
2023-02-28T20:02:45.475Z,100.00
2023-02-28T20:06:02.267Z,100.00
2023-02-28T20:09:06.059Z,100.00
2023-02-28T20:12:23.119Z,100.00
2023-02-28T20:15:28.050Z,100.00
2023-02-28T20:18:32.381Z,100.00
2023-02-28T20:21:37.718Z,100.00
2023-02-28T20:24:41.505Z,100.00
2023-02-28T20:27:45.418Z,100.00
2023-02-28T20:30:49.473Z,100.00
2023-02-28T20:33:54.274Z,100.00
2023-02-28T20:36:59.747Z,100.00
2023-02-28T20:40:04.558Z,100.00
2023-02-28T20:43:08.421Z,100.00
2023-02-28T20:46:13.247Z,100.00
2023-02-28T20:49:17.522Z,100.00
2023-02-28T20:52:22.569Z,100.00
2023-02-28T20:55:26.331Z,100.00
2023-02-28T20:58:32.929Z,100.00
2023-02-28T21:01:36.658Z,100.00
2023-02-28T21:04:40.497Z,100.00
2023-02-28T21:07:46.097Z,100.00
2023-02-28T21:10:49.872Z,100.00
2023-02-28T21:13:54.437Z,100.00
2023-02-28T21:16:58.245Z,100.00
2023-02-28T21:20:02.107Z,100.00
2023-02-28T21:23:07.269Z,100.00
2023-02-28T21:26:14.693Z,100.00
2023-02-28T21:29:18.294Z,100.00
2023-02-28T21:32:22.175Z,100.00
2023-02-28T21:35:26.033Z,100.00
2023-02-28T21:38:31.691Z,100.00
2023-02-28T21:41:36.087Z,100.00
2023-02-28T21:44:39.820Z,100.00
2023-02-28T21:47:43.827Z,100.00
2023-02-28T21:50:57.914Z,100.00
2023-02-28T21:54:03.538Z,100.00
2023-02-28T21:57:07.245Z,100.00
2023-02-28T22:00:13.293Z,100.00
2023-02-28T22:03:17.067Z,100.00
2023-02-28T22:06:24.223Z,100.00
2023-02-28T22:09:29.858Z,100.00
2023-02-28T22:12:33.880Z,100.00
2023-02-28T22:15:38.466Z,100.00
2023-02-28T22:18:44.441Z,100.00
2023-02-28T22:21:48.259Z,100.00
2023-02-28T22:24:53.837Z,100.00
2023-02-28T22:27:57.447Z,100.00
2023-02-28T22:31:02.519Z,100.00
2023-02-28T22:34:08.995Z,100.00
2023-02-28T22:37:13.023Z,100.00
2023-02-28T22:40:18.501Z,100.00
2023-02-28T22:43:22.321Z,100.00
2023-02-28T22:46:30.096Z,100.00
2023-02-28T22:49:33.967Z,100.00
2023-02-28T22:52:40.965Z,100.00
2023-02-28T22:55:46.130Z,100.00
2023-02-28T22:58:51.925Z,100.00
2023-02-28T23:01:55.678Z,100.00
2023-02-28T23:04:59.468Z,100.00
2023-02-28T23:08:03.147Z,100.00
2023-02-28T23:11:08.370Z,100.00
2023-02-28T23:14:14.402Z,100.00
2023-02-28T23:17:18.402Z,100.00
2023-02-28T23:20:22.976Z,100.00
2023-02-28T23:23:27.396Z,100.00
2023-02-28T23:26:33.647Z,100.00
2023-02-28T23:29:38.145Z,100.00
2023-02-28T23:32:43.256Z,100.00
2023-02-28T23:35:47.232Z,100.00
2023-02-28T23:38:53.728Z,100.00
2023-02-28T23:41:59.521Z,100.00
2023-02-28T23:45:04.383Z,100.00
2023-02-28T23:48:08.401Z,100.00
2023-02-28T23:51:17.873Z,100.00
2023-02-28T23:54:21.904Z,100.00
2023-02-28T23:57:27.240Z,100.00
